METAR és
SPECI
METAR LHBP 250630Z 32007KT 9999 -SHRA FEW030 SCT058 13/12 Q1010 BECMG NSW=
METAR LHBP 250600Z 36005KT 330V060 9999 -SHRA SCT032 BKN058 13/12 Q1011 NOSIG=
METAR LHBP 250530Z VRB03KT 9999 -SHRA FEW012 SCT030 BKN070 13/12 Q1010 TEMPO SHRA BKN025=
METAR LHBP 250500Z VRB02KT 9999 VCSH FEW025 BKN070 13/12 Q1011 NOSIG=
METAR LHBP 250430Z VRB03KT 9999 -RA FEW010 SCT025 BKN070 13/11 Q1010 RERA NOSIG=
METAR LHBP 250400Z 34009KT 9999 RA FEW007 BKN030 BKN080 13/11 Q1010 RERA NOSIG=
TAF
TAF LHBP 250500Z 2506/2606 35005KT 9999 SCT030 BKN060 TEMPO 2506/2511 07008KT 4500 SHRA TSRA BKN012 SCT025CB BKN045 TEMPO 2515/2522 VRB16G32KT 2000 TSRA SCT030CB BKN050 BECMG 2522/2524 VRB03KT 5000 BR NSC TEMPO 2600/2606 1500 BCFG BR BKN002=
GAMET
FAHU41 LHBM 250500
LHCC GAMET VALID 250600/251200 LHBP-
LHCC BUDAPEST FIR BLW FL100
SECN I
SFC VIS: 06/09 3000-5000 M RA S OF N4640 AND BTN E01715 AND
E01920
SIGWX: 06/10 EMBD TS E0 OF E01700
10/12 EMBD TS BTN E01630 AND LINE N4813 E01935 - N4544
E01824
10/12 ISOL TS E OF LINE N4813 E01935 - N4544 E01824
SIG CLD: 06/10 EMBD CB 2000-3000/XXX FT AGL E OF E01700
08/12 BKN 600-1000/1300-2000 FT AGL BTN LINE N4609
E02042 - N4805 E01921 AND N4747 E01739 - N4614
E01657
10/12 EMBD CB 2000-3000/XXX FT AGL BTN E01630 AND LINE
N4813 E01935 - N4544 E01824
10/12 ISOL TCU CB 1700-3000/XXX FT AGL E OF LINE N4813
E01935 - N4544 E01824
ICE: 06/09 MOD 9500/XXX FT AMSL W OF LINE N4544 E01824 - N4810
E2003
09/12 MOD 9500/XXX FT AMSL W OF LINE N4559 E01717 - N4831
E02155
TURB: 06/09 MOD SFC/3000 FT AMSL
09/12 MOD SFC/3000 FT AMSL W OF E01830
SIGMETS APPLICABLE: 02=
OMSZ: 2015. május 25. 07:06 (05:06  UTC)
[FAHU41]
AIRMET
Nincs érvényes távirat! 
WAHU41 LHBM 210600
LHCC AIRMET 01 VALID 210600/210900 LHBP-
LHCC BUDAPEST FIR ISOL TS AND ISOL CB 4000/XXXFT AGL
OBS AND FCST E OF E01930 AND N OF N4730 MOV NNE NC=
OMSZ: 2015. május 21. 08:02 (06:02  UTC)
[WAHU41]
SIGMET
Nincs érvényes távirat! 
WSHU31 LHBM 250445
LHCC SIGMET 02 VALID 250445/250645 LHBP-
LHCC BUDAPEST FIR EMBD TS OBS WI N4745 E02105 - N4700 E02115
- N4645 E01930 - N4755 E01925 - N4745 E02105 TOP FL270 MOV
WNW NC=
OMSZ: 2015. május 25. 06:46 (04:46  UTC)
[WSHU31]
SIGMET
Vulkáni hamufelhő
Nincs érvényes távirat! 
WVHU31 LHBM 271515 CCA
LHCC SIGMET 03 VALID 271515/271800 LHBP-
LHCC BUDAPEST FIR EXERCISE VOLCEX12/01
CNL VA SIGMET 02 271200/271800
EXERCISE EXERCISE EXERCISE VOLCEX12/01=
OMSZ: 2015. április 14. 15:15 (13:15  UTC)
[WVHU31]